Time;durP1;ratioP1;P1;durP2;ratioP2;P2;SDS_P1;SDS_P2;PMS_P1;PMS_P2;Temp;Humidity;BMP_temperature;BMP_pressure;BME280_temperature;BME280_humidity;BME280_pressure;Samples;Min_cycle;Max_cycle;Signal;HPM_P1;HPM_P2
2023/03/25 00:01:07;;;;;;;8.50;1.75;;;18.00;54.40;;;;;;5076041;28;20051;-73
2023/03/25 00:03:40;;;;;;;5.85;1.30;;;18.00;53.80;;;;;;5092924;28;20078;-73
2023/03/25 00:06:08;;;;;;;4.05;1.35;;;18.00;53.70;;;;;;5093642;28;20032;-73
2023/03/25 00:08:35;;;;;;;3.10;1.02;;;17.90;53.70;;;;;;5093677;28;20050;-74
2023/03/25 00:11:03;;;;;;;7.35;1.88;;;17.90;53.60;;;;;;5093849;28;20356;-72
2023/03/25 00:13:33;;;;;;;5.57;1.27;;;17.90;53.60;;;;;;5093827;28;20391;-74
2023/03/25 00:16:00;;;;;;;6.80;1.52;;;17.90;53.70;;;;;;5093468;28;20036;-74
2023/03/25 00:18:28;;;;;;;4.68;1.10;;;17.90;53.70;;;;;;5093470;28;20028;-73
2023/03/25 00:20:55;;;;;;;5.55;1.27;;;17.90;53.60;;;;;;5093622;28;20034;-73
2023/03/25 00:23:22;;;;;;;4.65;1.60;;;17.90;54.20;;;;;;5093538;28;20058;-72
2023/03/25 00:25:51;;;;;;;4.88;1.60;;;17.90;53.60;;;;;;5093087;28;20064;-74
2023/03/25 00:28:17;;;;;;;5.72;1.35;;;17.90;53.70;;;;;;5093282;28;20099;-75
2023/03/25 00:30:44;;;;;;;4.05;1.48;;;17.90;53.60;;;;;;5093191;28;20048;-74
2023/03/25 00:33:12;;;;;;;6.65;1.83;;;17.80;53.50;;;;;;5092179;28;20527;-74
2023/03/25 00:35:43;;;;;;;5.82;1.38;;;17.90;53.70;;;;;;5092160;28;20024;-72
2023/03/25 00:38:10;;;;;;;8.38;2.03;;;17.80;53.60;;;;;;5093378;28;20458;-74
2023/03/25 00:40:37;;;;;;;7.63;1.50;;;17.80;53.50;;;;;;5092984;28;20016;-73
2023/03/25 00:43:04;;;;;;;5.82;1.52;;;17.80;53.70;;;;;;5092984;28;20103;-74
2023/03/25 00:45:31;;;;;;;5.75;1.50;;;17.80;53.60;;;;;;5093211;28;20028;-72
2023/03/25 00:47:57;;;;;;;5.38;1.67;;;17.80;53.60;;;;;;5092860;28;20489;-72
2023/03/25 00:50:23;;;;;;;6.18;2.05;;;17.80;53.50;;;;;;5093225;28;20081;-72
2023/03/25 00:52:52;;;;;;;5.82;1.48;;;17.80;53.70;;;;;;5093223;28;20451;-72
2023/03/25 00:55:19;;;;;;;4.38;1.27;;;17.80;53.70;;;;;;5092633;28;20035;-74
2023/03/25 00:57:45;;;;;;;4.22;1.38;;;17.80;53.70;;;;;;5093028;28;20034;-74
2023/03/25 01:00:14;;;;;;;2.60;1.10;;;17.70;53.50;;;;;;5092922;28;20069;-74
2023/03/25 01:02:44;;;;;;;7.07;1.63;;;17.70;53.60;;;;;;5092617;28;20020;-74
2023/03/25 01:05:11;;;;;;;6.80;1.63;;;17.70;53.60;;;;;;5092829;28;20036;-74
2023/03/25 01:07:38;;;;;;;5.78;1.42;;;17.70;53.70;;;;;;5092808;28;20024;-74
2023/03/25 01:10:05;;;;;;;6.75;2.00;;;17.70;53.70;;;;;;5092656;28;20485;-74
2023/03/25 01:12:31;;;;;;;9.27;1.65;;;17.70;53.60;;;;;;5092551;28;20028;-74
2023/03/25 01:14:57;;;;;;;4.28;1.27;;;17.70;53.70;;;;;;5092505;28;20508;-74
2023/03/25 01:17:23;;;;;;;6.82;1.58;;;17.70;53.70;;;;;;5092722;28;20382;-74
2023/03/25 01:19:50;;;;;;;3.78;1.48;;;17.70;53.70;;;;;;5092714;28;20020;-74
2023/03/25 01:22:16;;;;;;;5.70;1.33;;;17.70;53.70;;;;;;5092315;28;20538;-74
2023/03/25 01:24:42;;;;;;;5.25;1.33;;;17.70;53.70;;;;;;5092158;28;20048;-74
2023/03/25 01:27:09;;;;;;;5.60;1.30;;;17.60;53.70;;;;;;5092270;28;20514;-73
2023/03/25 01:29:35;;;;;;;7.25;1.70;;;17.60;53.80;;;;;;5092721;28;20028;-74
2023/03/25 01:32:01;;;;;;;7.15;1.27;;;17.70;53.80;;;;;;5092562;28;20386;-74
2023/03/25 01:34:27;;;;;;;6.38;1.73;;;17.70;53.90;;;;;;5092551;28;20095;-73
2023/03/25 01:36:54;;;;;;;4.65;1.52;;;17.60;53.80;;;;;;5092437;28;20081;-74
2023/03/25 01:39:21;;;;;;;3.47;1.23;;;17.60;53.90;;;;;;5092090;28;20051;-74
2023/03/25 01:41:49;;;;;;;5.70;1.33;;;17.60;54.00;;;;;;5092449;28;20414;-74
2023/03/25 01:44:18;;;;;;;5.53;1.27;;;17.60;54.00;;;;;;5094377;28;20030;-74
2023/03/25 01:46:45;;;;;;;7.82;1.73;;;17.60;54.00;;;;;;5096690;28;20042;-74
2023/03/25 01:49:23;;;;;;;5.65;1.48;;;17.60;54.10;;;;;;5096493;28;20023;-74
2023/03/25 01:51:53;;;;;;;3.13;1.30;;;17.60;54.00;;;;;;5096284;28;20056;-74
2023/03/25 01:54:20;;;;;;;;;;;17.60;54.00;;;;;;5096549;28;20024;-74
2023/03/25 01:56:47;;;;;;;5.45;1.40;;;17.60;54.00;;;;;;5096472;28;19912;-74
2023/03/25 01:59:17;;;;;;;3.67;1.20;;;17.50;54.10;;;;;;5096096;28;20483;-74
2023/03/25 02:01:45;;;;;;;5.20;1.48;;;17.50;54.10;;;;;;5096284;28;20095;-74
2023/03/25 02:04:15;;;;;;;5.15;1.48;;;17.50;54.00;;;;;;5096386;28;20097;-74
2023/03/25 02:06:49;;;;;;;2.37;1.23;;;17.50;54.20;;;;;;5096332;28;20099;-74
2023/03/25 02:09:18;;;;;;;7.65;1.98;;;17.50;54.10;;;;;;5096039;28;20179;-73
2023/03/25 02:11:44;;;;;;;6.10;1.33;;;17.50;54.00;;;;;;5096285;28;20021;-74
2023/03/25 02:14:19;;;;;;;3.70;1.20;;;17.50;54.20;;;;;;5096133;28;20066;-74
2023/03/25 02:17:28;;;;;;;4.63;1.23;;;17.50;54.20;;;;;;5095780;28;20483;-74
2023/03/25 02:20:14;;;;;;;3.55;1.40;;;17.50;54.10;;;;;;5087153;28;20540;-73
2023/03/25 02:23:02;;;;;;;5.03;1.50;;;17.50;54.20;;;;;;5095976;28;20111;-73
2023/03/25 02:26:02;;;;;;;5.75;1.30;;;17.40;54.10;;;;;;5095611;28;20535;-79
2023/03/25 02:28:38;;;;;;;5.28;1.45;;;17.40;54.20;;;;;;5096006;28;20028;-81
2023/03/25 02:31:41;;;;;;;5.28;1.30;;;17.40;54.20;;;;;;5095949;28;20028;-81
2023/03/25 02:34:55;;;;;;;4.22;1.63;;;17.40;54.20;;;;;;5095586;28;20024;-81
2023/03/25 02:37:57;;;;;;;6.07;1.58;;;17.40;54.20;;;;;;5075503;28;20055;-81
2023/03/25 02:40:35;;;;;;;5.90;1.90;;;17.40;54.20;;;;;;5095657;28;20025;-81
2023/03/25 02:43:10;;;;;;;4.75;1.20;;;17.40;54.20;;;;;;5095854;28;20024;-79
2023/03/25 02:45:44;;;;;;;6.55;1.20;;;17.40;54.30;;;;;;5095560;28;20035;-81
2023/03/25 02:48:18;;;;;;;3.90;1.48;;;17.40;54.20;;;;;;5095663;28;20516;-81
2023/03/25 02:51:12;;;;;;;4.47;1.27;;;17.40;54.20;;;;;;5095521;28;20489;-81
2023/03/25 02:53:40;;;;;;;6.30;1.85;;;17.40;54.30;;;;;;5093094;28;20039;-81
2023/03/25 02:56:09;;;;;;;6.60;1.80;;;17.40;54.20;;;;;;5092785;28;20044;-81
2023/03/25 02:58:37;;;;;;;5.53;1.50;;;17.30;54.20;;;;;;5095082;28;20459;-80
2023/03/25 03:01:03;;;;;;;4.13;1.20;;;17.30;54.20;;;;;;5095264;28;20412;-81
2023/03/25 03:03:29;;;;;;;5.43;2.13;;;17.30;54.30;;;;;;5094950;28;20028;-81
2023/03/25 03:06:03;;;;;;;4.18;1.38;;;17.30;54.30;;;;;;5094926;28;20028;-81
2023/03/25 03:08:48;;;;;;;5.95;1.90;;;17.30;54.30;;;;;;5094821;28;20065;-82
2023/03/25 03:11:30;;;;;;;5.30;1.60;;;17.30;54.40;;;;;;5094803;28;20048;-80
2023/03/25 03:14:13;;;;;;;7.90;1.58;;;17.30;54.40;;;;;;5094952;28;20056;-81
2023/03/25 03:16:57;;;;;;;6.05;1.55;;;17.30;54.40;;;;;;5094734;28;20406;-81
2023/03/25 03:19:26;;;;;;;4.32;1.70;;;17.30;54.50;;;;;;5094791;28;20028;-80
2023/03/25 03:22:07;;;;;;;4.93;1.58;;;17.20;54.50;;;;;;5094736;28;20028;-74
2023/03/25 03:24:39;;;;;;;4.00;1.40;;;17.20;54.50;;;;;;5094424;28;20044;-74
2023/03/25 03:27:35;;;;;;;7.10;1.38;;;17.20;54.50;;;;;;5094777;28;20020;-74
2023/03/25 03:30:05;;;;;;;5.70;1.70;;;17.20;54.50;;;;;;5085900;28;20390;-74
2023/03/25 03:32:47;;;;;;;7.20;1.90;;;17.20;54.50;;;;;;5094645;28;20059;-74
2023/03/25 03:35:17;;;;;;;6.00;1.40;;;17.20;54.50;;;;;;5094576;28;20077;-74
2023/03/25 03:37:46;;;;;;;;;;;17.20;54.50;;;;;;5095158;28;20024;-74
2023/03/25 03:40:17;;;;;;;4.72;1.40;;;17.10;54.50;;;;;;5094230;28;19904;-74
2023/03/25 03:42:52;;;;;;;4.68;1.52;;;17.20;54.60;;;;;;5094426;28;20024;-74
2023/03/25 03:45:30;;;;;;;4.45;1.60;;;17.10;54.60;;;;;;5094470;28;20088;-74
2023/03/25 03:47:58;;;;;;;7.65;2.00;;;17.10;54.60;;;;;;5094360;28;20040;-74
2023/03/25 03:50:33;;;;;;;5.65;1.80;;;17.10;55.00;;;;;;5094309;28;20114;-74
2023/03/25 03:53:25;;;;;;;5.97;2.10;;;17.10;54.60;;;;;;5094393;28;20086;-74
2023/03/25 03:56:24;;;;;;;5.30;1.27;;;17.10;54.60;;;;;;5094182;28;20051;-80
2023/03/25 03:58:58;;;;;;;7.43;1.90;;;17.10;54.70;;;;;;5094316;28;20446;-81
2023/03/25 04:01:34;;;;;;;6.43;1.55;;;17.10;63.50;;;;;;5094096;28;20028;-81
2023/03/25 04:04:09;;;;;;;6.88;2.10;;;17.20;54.70;;;;;;5094110;28;20111;-80
2023/03/25 04:06:43;;;;;;;6.68;1.85;;;17.10;54.70;;;;;;5093569;28;20028;-81
2023/03/25 04:09:33;;;;;;;5.22;1.80;;;17.10;54.70;;;;;;5094117;28;20024;-80
2023/03/25 04:12:05;;;;;;;6.15;1.73;;;17.10;54.70;;;;;;5094055;28;20409;-81
2023/03/25 04:14:31;;;;;;;5.30;1.75;;;17.10;54.80;;;;;;5093824;28;20028;-81
2023/03/25 04:16:58;;;;;;;6.00;2.42;;;17.10;54.90;;;;;;5093535;28;20043;-81
2023/03/25 04:19:25;;;;;;;5.97;1.58;;;17.10;54.90;;;;;;5093569;28;20032;-81
2023/03/25 04:21:50;;;;;;;5.72;1.45;;;17.10;54.90;;;;;;5093414;28;20032;-81
2023/03/25 04:24:18;;;;;;;6.85;1.75;;;17.10;54.90;;;;;;5093316;28;20051;-80
2023/03/25 04:26:44;;;;;;;6.90;1.80;;;17.10;54.90;;;;;;5093412;28;20063;-80
2023/03/25 04:29:12;;;;;;;5.80;2.22;;;17.00;54.90;;;;;;5093339;28;20036;-81
2023/03/25 04:31:45;;;;;;;6.70;2.58;;;17.00;54.90;;;;;;5093674;28;20089;-81
2023/03/25 04:34:15;;;;;;;3.92;1.95;;;17.00;54.90;;;;;;5093263;28;20155;-80
2023/03/25 04:36:41;;;;;;;7.63;1.85;;;17.00;54.90;;;;;;5093071;28;20059;-81
2023/03/25 04:39:10;;;;;;;7.30;1.95;;;17.00;54.90;;;;;;5093122;28;20025;-80
2023/03/25 04:41:37;;;;;;;6.32;1.52;;;17.00;55.00;;;;;;5093479;28;20432;-81
2023/03/25 04:44:06;;;;;;;4.10;1.40;;;17.00;55.00;;;;;;5093003;28;20012;-80
2023/03/25 04:46:33;;;;;;;8.00;1.70;;;17.00;55.00;;;;;;5093339;28;20065;-81
2023/03/25 04:49:02;;;;;;;7.15;1.65;;;17.00;55.00;;;;;;5093243;28;20024;-81
2023/03/25 04:51:29;;;;;;;6.18;1.92;;;17.00;55.00;;;;;;5093062;28;20107;-81
2023/03/25 04:53:55;;;;;;;6.40;1.60;;;17.00;55.00;;;;;;5093258;28;20028;-81
2023/03/25 04:56:22;;;;;;;5.28;1.55;;;16.90;55.00;;;;;;5092776;28;20496;-81
2023/03/25 04:58:48;;;;;;;6.22;1.58;;;16.90;55.00;;;;;;5093283;28;20050;-81
2023/03/25 05:01:22;;;;;;;5.57;1.90;;;16.90;63.60;;;;;;5093057;28;20052;-81
2023/03/25 05:03:49;;;;;;;6.13;1.83;;;17.00;55.10;;;;;;5093125;28;20453;-81
2023/03/25 05:06:16;;;;;;;7.00;1.58;;;16.90;55.00;;;;;;5092914;28;20024;-83
2023/03/25 05:08:42;;;;;;;6.43;1.77;;;16.90;55.00;;;;;;5093121;28;20113;-83
2023/03/25 05:11:08;;;;;;;5.63;2.08;;;16.90;55.00;;;;;;5092861;28;20020;-83
2023/03/25 05:13:34;;;;;;;5.90;1.52;;;16.90;55.10;;;;;;5092934;28;20095;-83
2023/03/25 05:16:00;;;;;;;9.13;2.10;;;16.90;55.10;;;;;;5092393;28;20106;-83
2023/03/25 05:18:27;;;;;;;7.43;1.77;;;16.90;55.70;;;;;;5092025;28;20509;-82
2023/03/25 05:20:54;;;;;;;7.70;1.80;;;16.90;55.10;;;;;;5093138;28;20060;-83
2023/03/25 05:23:20;;;;;;;6.95;1.77;;;16.90;55.10;;;;;;5091210;28;20054;-83
2023/03/25 05:25:49;;;;;;;8.70;1.83;;;16.90;55.10;;;;;;5092286;28;20040;-83
2023/03/25 05:28:15;;;;;;;4.28;1.73;;;16.90;55.10;;;;;;5092470;28;20020;-84
2023/03/25 05:30:44;;;;;;;4.10;1.88;;;16.80;55.10;;;;;;5091115;28;20028;-83
2023/03/25 05:33:12;;;;;;;8.20;1.98;;;16.90;55.20;;;;;;5092418;28;20423;-83
2023/03/25 05:35:39;;;;;;;8.38;2.15;;;16.80;55.10;;;;;;5092519;28;20382;-84
2023/03/25 05:38:08;;;;;;;8.15;1.70;;;16.80;55.10;;;;;;5092640;28;20404;-83
2023/03/25 05:40:35;;;;;;;7.90;1.83;;;16.80;55.20;;;;;;5092660;28;20020;-84
2023/03/25 05:43:02;;;;;;;5.93;1.80;;;16.80;55.30;;;;;;5092260;28;20791;-83
2023/03/25 05:45:28;;;;;;;4.47;1.50;;;16.80;55.10;;;;;;5092569;28;20017;-83
2023/03/25 05:47:54;;;;;;;8.93;2.05;;;16.80;55.20;;;;;;5092262;28;20103;-83
2023/03/25 05:50:20;;;;;;;10.05;1.70;;;16.80;55.30;;;;;;5092341;28;20111;-83
2023/03/25 05:52:50;;;;;;;9.18;2.65;;;16.80;55.20;;;;;;5092178;28;20110;-84
2023/03/25 05:55:19;;;;;;;7.30;2.00;;;16.70;55.10;;;;;;5092120;28;20024;-85
2023/03/25 05:57:45;;;;;;;4.70;1.65;;;16.80;55.20;;;;;;5092131;28;20483;-84
2023/03/25 06:00:14;;;;;;;5.70;1.60;;;16.70;55.20;;;;;;5092377;28;20374;-83
2023/03/25 06:02:41;;;;;;;7.35;1.60;;;16.70;55.20;;;;;;5092306;28;20032;-83
2023/03/25 06:05:12;;;;;;;7.95;1.80;;;16.70;55.20;;;;;;5092090;28;20024;-83
2023/03/25 06:07:48;;;;;;;4.63;1.58;;;16.80;55.20;;;;;;5092071;28;20020;-80
2023/03/25 06:10:16;;;;;;;8.23;2.25;;;16.70;55.20;;;;;;5097527;28;20020;-80
2023/03/25 06:12:42;;;;;;;6.65;1.77;;;16.70;55.20;;;;;;5094235;28;20032;-86
2023/03/25 06:15:09;;;;;;;7.55;1.55;;;16.70;55.20;;;;;;5092549;28;20032;-90
2023/03/25 06:17:38;;;;;;;6.95;2.30;;;16.70;55.20;;;;;;5092750;28;20402;-91
2023/03/25 06:20:11;;;;;;;8.40;1.95;;;16.70;55.20;;;;;;5092352;28;20048;-77
2023/03/25 06:22:41;;;;;;;6.03;1.67;;;16.70;55.20;;;;;;5091997;28;20031;-79
2023/03/25 06:25:08;;;;;;;6.43;1.85;;;16.70;55.30;;;;;;5107369;28;20125;-79
2023/03/25 06:27:39;;;;;;;9.68;2.00;;;16.70;55.30;;;;;;5092091;28;20379;-79
2023/03/25 06:30:10;;;;;;;5.45;1.77;;;16.60;55.20;;;;;;5093535;28;20024;-79
2023/03/25 06:32:37;;;;;;;6.53;2.10;;;16.60;55.30;;;;;;5095573;28;20032;-79
2023/03/25 06:35:07;;;;;;;8.85;1.92;;;16.60;55.30;;;;;;5095436;28;20024;-79
2023/03/25 06:37:33;;;;;;;6.32;1.70;;;16.60;55.30;;;;;;5095352;28;20039;-81
2023/03/25 06:39:59;;;;;;;12.32;2.25;;;16.60;55.30;;;;;;5095342;28;20028;-79
2023/03/25 06:42:26;;;;;;;9.98;2.00;;;16.60;55.30;;;;;;5095370;28;20036;-79
2023/03/25 06:44:52;;;;;;;6.85;2.10;;;16.60;55.40;;;;;;5095404;28;20074;-79
2023/03/25 06:47:17;;;;;;;4.70;1.60;;;16.60;55.50;;;;;;5095301;28;20024;-79
2023/03/25 06:49:43;;;;;;;5.82;1.70;;;16.70;55.50;;;;;;5111015;28;20122;-79
2023/03/25 06:52:10;;;;;;;4.93;1.42;;;16.70;55.50;;;;;;5095115;28;20024;-79
2023/03/25 06:54:37;;;;;;;6.20;1.60;;;16.70;56.00;;;;;;5095386;28;20028;-79
2023/03/25 06:57:03;;;;;;;6.72;1.70;;;16.70;55.40;;;;;;5095346;28;20432;-79
2023/03/25 06:59:30;;;;;;;6.50;1.73;;;16.70;55.50;;;;;;5095263;28;20024;-80
2023/03/25 07:01:57;;;;;;;8.02;2.05;;;16.70;55.50;;;;;;5095272;28;20076;-80
2023/03/25 07:04:24;;;;;;;11.10;2.50;;;16.60;56.10;;;;;;5095273;28;20038;-79
2023/03/25 07:06:50;;;;;;;8.60;2.05;;;16.60;55.40;;;;;;5094891;28;20067;-79
2023/03/25 07:09:17;;;;;;;6.55;2.00;;;16.70;55.50;;;;;;5094867;28;20459;-79
2023/03/25 07:11:43;;;;;;;8.65;2.13;;;16.60;55.50;;;;;;5095135;28;20020;-80
2023/03/25 07:14:09;;;;;;;8.70;2.25;;;16.70;55.60;;;;;;5095051;28;20024;-79
2023/03/25 07:16:35;;;;;;;7.05;1.95;;;16.70;55.50;;;;;;5094932;28;20063;-80
2023/03/25 07:19:01;;;;;;;7.35;1.90;;;16.70;55.50;;;;;;5094744;28;20075;-79
2023/03/25 07:21:27;;;;;;;11.35;2.45;;;16.60;55.50;;;;;;5094481;28;20024;-79
2023/03/25 07:23:54;;;;;;;6.85;2.10;;;16.70;55.50;;;;;;5094389;28;20542;-79
2023/03/25 07:26:20;;;;;;;10.32;2.53;;;16.70;55.60;;;;;;5094506;28;20107;-79
2023/03/25 07:28:49;;;;;;;6.82;2.08;;;16.60;55.50;;;;;;5094475;28;20028;-79
2023/03/25 07:31:16;;;;;;;9.50;2.28;;;16.70;55.60;;;;;;5094709;28;20028;-79
2023/03/25 07:33:42;;;;;;;10.40;2.20;;;16.60;55.50;;;;;;5094645;28;20017;-79
2023/03/25 07:36:11;;;;;;;10.52;2.33;;;16.60;55.40;;;;;;5094359;28;20540;-79
2023/03/25 07:38:37;;;;;;;10.55;2.28;;;16.60;55.50;;;;;;5094600;28;20085;-79
2023/03/25 07:41:09;;;;;;;8.65;2.03;;;16.70;55.60;;;;;;5094008;28;20413;-79
2023/03/25 07:43:35;;;;;;;8.57;2.38;;;16.70;55.50;;;;;;5094437;28;20070;-79
2023/03/25 07:46:01;;;;;;;8.18;2.33;;;16.60;55.40;;;;;;5094458;28;20107;-80
2023/03/25 07:48:27;;;;;;;7.88;2.45;;;16.60;55.50;;;;;;5094135;28;20027;-80
2023/03/25 07:50:53;;;;;;;11.55;3.10;;;16.60;55.50;;;;;;5094057;28;20016;-80
2023/03/25 07:53:19;;;;;;;7.22;1.98;;;16.60;55.60;;;;;;5094344;28;20372;-80
2023/03/25 07:55:47;;;;;;;8.88;2.53;;;16.60;55.40;;;;;;5094076;28;20422;-80
2023/03/25 07:58:13;;;;;;;8.23;2.40;;;16.60;55.40;;;;;;5094508;28;20024;-81
2023/03/25 08:00:39;;;;;;;8.35;2.42;;;16.50;55.40;;;;;;5093970;28;20391;-80
2023/03/25 08:03:05;;;;;;;9.35;2.38;;;16.50;55.50;;;;;;5093748;28;20069;-80
2023/03/25 08:05:31;;;;;;;9.60;2.83;;;16.60;55.50;;;;;;5094103;28;20024;-80
2023/03/25 08:07:59;;;;;;;11.85;2.80;;;16.50;55.40;;;;;;5093727;28;20050;-81
2023/03/25 08:10:25;;;;;;;10.90;2.38;;;16.60;55.30;;;;;;5093723;28;20024;-81
2023/03/25 08:12:52;;;;;;;9.80;2.72;;;16.50;55.40;;;;;;5093803;28;20107;-83
2023/03/25 08:15:19;;;;;;;11.20;2.65;;;16.50;55.50;;;;;;5093861;28;20035;-89
2023/03/25 08:17:45;;;;;;;9.45;2.92;;;16.50;55.50;;;;;;5094046;28;20039;-87
2023/03/25 08:20:12;;;;;;;9.98;2.70;;;16.50;55.50;;;;;;5093701;28;20020;-85
2023/03/25 08:22:38;;;;;;;14.43;3.05;;;16.50;55.50;;;;;;5093816;28;20027;-90
2023/03/25 08:25:04;;;;;;;11.80;2.95;;;16.50;55.50;;;;;;5093987;28;20040;-87
2023/03/25 08:27:30;;;;;;;8.63;2.67;;;16.50;55.60;;;;;;5093818;28;20032;-82
2023/03/25 08:29:58;;;;;;;9.55;2.40;;;16.50;55.60;;;;;;5093780;28;20356;-88
2023/03/25 08:32:25;;;;;;;12.88;3.17;;;16.50;55.60;;;;;;5094105;28;20118;-85
2023/03/25 08:34:50;;;;;;;10.80;3.45;;;16.50;55.50;;;;;;5093748;28;20028;-86
2023/03/25 08:37:16;;;;;;;16.33;3.85;;;16.50;55.60;;;;;;5093454;28;20036;-87
2023/03/25 08:39:44;;;;;;;12.70;2.83;;;16.50;55.60;;;;;;5093535;28;20411;-89
2023/03/25 08:42:12;;;;;;;13.38;3.17;;;16.50;55.60;;;;;;5093756;28;20043;-88
2023/03/25 08:44:38;;;;;;;14.48;4.25;;;16.40;55.50;;;;;;5093233;28;20490;-88
2023/03/25 08:47:04;;;;;;;16.05;3.38;;;16.40;55.70;;;;;;5093646;28;20111;-88
2023/03/25 08:49:30;;;;;;;9.45;3.03;;;16.40;55.70;;;;;;5093272;28;20107;-85
2023/03/25 08:51:57;;;;;;;15.68;3.67;;;16.40;55.70;;;;;;5093352;28;20394;-84
2023/03/25 08:54:24;;;;;;;11.95;3.10;;;16.50;55.70;;;;;;5092088;28;20111;-85
2023/03/25 08:56:50;;;;;;;16.48;3.28;;;16.40;55.70;;;;;;5092743;28;20047;-85
2023/03/25 08:59:16;;;;;;;13.32;3.25;;;16.50;55.80;;;;;;5092918;28;20024;-86
2023/03/25 09:01:43;;;;;;;12.80;3.55;;;16.50;55.90;;;;;;5093117;28;20024;-84
2023/03/25 09:04:10;;;;;;;13.57;3.15;;;16.40;55.70;;;;;;5093475;28;20475;-86
2023/03/25 09:06:38;;;;;;;18.20;3.22;;;16.40;55.70;;;;;;5093025;28;20016;-80
2023/03/25 09:09:09;;;;;;;12.30;3.08;;;16.50;55.80;;;;;;5093010;28;20395;-84
2023/03/25 09:11:35;;;;;;;14.75;3.70;;;16.50;55.80;;;;;;5092611;28;20024;-73
2023/03/25 09:14:02;;;;;;;14.50;3.50;;;16.50;55.90;;;;;;5092479;28;20016;-73
2023/03/25 09:16:29;;;;;;;12.00;3.28;;;16.50;55.90;;;;;;5092670;28;20105;-73
2023/03/25 09:18:56;;;;;;;12.18;3.33;;;16.50;55.90;;;;;;5092465;28;20073;-74
2023/03/25 09:21:22;;;;;;;15.85;3.40;;;16.60;56.00;;;;;;5092443;28;20463;-74
2023/03/25 09:23:48;;;;;;;11.15;3.00;;;16.60;56.00;;;;;;5092429;28;20023;-74
2023/03/25 09:26:14;;;;;;;16.25;3.65;;;16.60;56.00;;;;;;5092668;28;20028;-74
2023/03/25 09:28:41;;;;;;;12.10;3.17;;;16.60;56.10;;;;;;5092678;28;20106;-73
2023/03/25 09:31:08;;;;;;;16.40;4.10;;;16.60;56.00;;;;;;5092554;28;20109;-73
2023/03/25 09:33:35;;;;;;;14.68;3.50;;;16.60;56.10;;;;;;5092487;28;20422;-73
2023/03/25 09:36:02;;;;;;;11.15;2.97;;;16.60;56.20;;;;;;5092402;28;20351;-72
2023/03/25 09:38:29;;;;;;;13.30;4.00;;;16.60;56.20;;;;;;5092635;28;20027;-73
2023/03/25 09:40:55;;;;;;;13.45;4.13;;;16.60;56.20;;;;;;5092517;28;20095;-73
2023/03/25 09:43:50;;;;;;;13.15;3.22;;;16.60;56.10;;;;;;5092379;28;20024;-73
2023/03/25 09:46:17;;;;;;;12.35;3.28;;;16.60;56.20;;;;;;5092233;28;20035;-73
2023/03/25 09:48:46;;;;;;;14.10;3.67;;;16.60;56.80;;;;;;5092096;28;20024;-73
2023/03/25 09:51:16;;;;;;;11.48;2.80;;;16.60;56.20;;;;;;5092036;28;20032;-73
2023/03/25 09:53:49;;;;;;;13.63;4.28;;;16.60;56.10;;;;;;5092193;28;20028;-73
2023/03/25 09:56:23;;;;;;;15.45;3.15;;;16.60;56.10;;;;;;5092012;28;20035;-73
2023/03/25 09:58:53;;;;;;;12.52;2.85;;;16.60;56.20;;;;;;5094136;28;20150;-73
2023/03/25 10:01:42;;;;;;;14.35;2.70;;;16.70;64.70;;;;;;5092146;28;20024;-74
2023/03/25 10:04:23;;;;;;;12.93;3.63;;;16.70;56.20;;;;;;5108053;28;20024;-74
2023/03/25 10:07:33;;;;;;;11.10;3.22;;;16.60;56.10;;;;;;5096167;28;20032;-73
2023/03/25 10:10:02;;;;;;;16.27;3.47;;;16.70;56.20;;;;;;5094706;28;20107;-74
2023/03/25 10:12:30;;;;;;;12.73;3.80;;;16.70;56.20;;;;;;5095974;28;20040;-73
2023/03/25 10:15:08;;;;;;;14.80;3.63;;;16.60;56.20;;;;;;5096220;28;20088;-73
2023/03/25 10:17:47;;;;;;;11.57;3.15;;;16.60;56.10;;;;;;5095699;28;20502;-73
2023/03/25 10:20:40;;;;;;;10.45;3.03;;;16.60;56.10;;;;;;5096085;28;20367;-74
2023/03/25 10:23:16;;;;;;;14.50;3.03;;;16.70;56.10;;;;;;5095895;28;20497;-74
2023/03/25 10:25:47;;;;;;;11.15;3.20;;;16.60;56.10;;;;;;5095630;28;20094;-75
2023/03/25 10:28:23;;;;;;;11.50;3.10;;;16.60;56.10;;;;;;5095980;28;20020;-74
2023/03/25 10:30:51;;;;;;;12.68;3.63;;;16.60;56.10;;;;;;5095898;28;20426;-74
2023/03/25 10:33:40;;;;;;;12.18;3.00;;;16.70;56.10;;;;;;5095823;28;20020;-74
2023/03/25 10:36:16;;;;;;;11.77;2.72;;;16.60;56.10;;;;;;5095777;28;20115;-74
2023/03/25 10:38:44;;;;;;;12.45;2.83;;;16.60;56.10;;;;;;5095681;28;20020;-74
2023/03/25 10:41:18;;;;;;;16.10;3.42;;;16.70;56.10;;;;;;5095491;28;20395;-74
2023/03/25 10:43:44;;;;;;;11.88;3.03;;;16.70;56.10;;;;;;5095363;28;20032;-74
2023/03/25 10:46:30;;;;;;;10.88;3.35;;;16.60;56.10;;;;;;5095526;28;20031;-74
2023/03/25 10:48:56;;;;;;;9.48;2.75;;;16.60;56.10;;;;;;5095506;28;20062;-73
2023/03/25 10:51:29;;;;;;;12.70;2.47;;;16.70;56.20;;;;;;5095126;28;20020;-73
2023/03/25 10:53:56;;;;;;;12.30;3.30;;;16.60;56.10;;;;;;5095430;28;20048;-74
2023/03/25 10:56:31;;;;;;;14.43;2.90;;;16.60;56.20;;;;;;5094931;28;20048;-75
2023/03/25 10:59:02;;;;;;;12.25;2.70;;;16.60;56.20;;;;;;5095447;28;20370;-74
2023/03/25 11:01:38;;;;;;;15.30;3.95;;;16.60;56.20;;;;;;5095331;28;20027;-73
2023/03/25 11:04:18;;;;;;;9.35;2.60;;;16.60;56.20;;;;;;5094949;28;20024;-73
2023/03/25 11:06:54;;;;;;;8.82;2.95;;;16.70;56.20;;;;;;5095211;28;20031;-72
2023/03/25 11:09:29;;;;;;;10.73;2.97;;;16.60;56.00;;;;;;5095122;28;20039;-73
2023/03/25 11:11:59;;;;;;;13.32;3.25;;;16.70;56.10;;;;;;5094780;28;20073;-73
2023/03/25 11:14:28;;;;;;;10.10;3.22;;;16.70;56.00;;;;;;5094943;28;20020;-72
2023/03/25 11:17:01;;;;;;;12.60;2.80;;;16.70;55.90;;;;;;5093704;28;20487;-73
2023/03/25 11:19:31;;;;;;;9.68;2.45;;;16.80;56.00;;;;;;5094642;28;20494;-72
2023/03/25 11:22:06;;;;;;;;;;;16.70;55.90;;;;;;5110858;28;20024;-73
2023/03/25 11:24:39;;;;;;;10.13;3.22;;;16.80;55.90;;;;;;5094321;28;19938;-73
2023/03/25 11:27:07;;;;;;;9.30;3.05;;;16.70;55.80;;;;;;5094498;28;20038;-73
2023/03/25 11:29:34;;;;;;;9.20;2.67;;;16.70;55.80;;;;;;5094279;28;20479;-72
2023/03/25 11:32:13;;;;;;;14.07;3.17;;;16.80;55.90;;;;;;5094343;28;20085;-72
2023/03/25 11:34:42;;;;;;;11.85;3.10;;;16.80;55.80;;;;;;5094205;28;20140;-73
2023/03/25 11:37:21;;;;;;;10.30;2.92;;;16.80;55.80;;;;;;5095003;28;20471;-92
2023/03/25 11:39:54;;;;;;;10.05;2.75;;;16.80;55.70;;;;;;5095883;28;20086;-81
2023/03/25 11:42:31;;;;;;;11.13;3.55;;;16.80;55.60;;;;;;5094335;28;20069;-78
2023/03/25 11:44:58;;;;;;;9.15;2.50;;;16.90;55.50;;;;;;5094718;28;20027;-87
2023/03/25 11:47:30;;;;;;;10.07;2.90;;;16.90;55.50;;;;;;5094692;28;20386;-85
2023/03/25 11:49:56;;;;;;;14.63;3.42;;;16.90;55.40;;;;;;5094431;28;20043;-86
2023/03/25 11:52:31;;;;;;;10.85;2.97;;;16.90;55.40;;;;;;5094095;28;20024;-82
2023/03/25 11:54:57;;;;;;;12.50;2.80;;;16.90;55.40;;;;;;5094466;28;20021;-78
2023/03/25 11:57:26;;;;;;;11.48;3.00;;;16.90;55.50;;;;;;5094193;28;20044;-80
2023/03/25 12:00:10;;;;;;;12.77;3.10;;;16.90;55.50;;;;;;5093006;28;20435;-82
2023/03/25 12:02:39;;;;;;;11.23;2.50;;;16.90;55.60;;;;;;5093823;28;20035;-78
2023/03/25 12:05:11;;;;;;;10.77;2.97;;;16.80;55.50;;;;;;5094180;28;20016;-80
2023/03/25 12:07:43;;;;;;;10.02;2.85;;;16.80;55.60;;;;;;5094036;28;20028;-77
2023/03/25 12:10:33;;;;;;;12.80;3.45;;;16.80;55.60;;;;;;5093708;28;20020;-83
2023/03/25 12:13:02;;;;;;;;;;;16.80;55.80;;;;;;5094217;28;20077;-84
2023/03/25 12:15:49;;;;;;;10.52;2.90;;;16.80;55.70;;;;;;5093655;28;19904;-83
2023/03/25 12:18:36;;;;;;;10.20;3.28;;;16.80;55.80;;;;;;5093875;28;20032;-83
2023/03/25 12:21:27;;;;;;;9.18;3.20;;;16.80;55.70;;;;;;5093427;28;20036;-83
2023/03/25 12:24:12;;;;;;;11.73;2.63;;;16.80;55.70;;;;;;5093485;28;20040;-83
2023/03/25 12:27:09;;;;;;;9.52;2.78;;;16.80;55.50;;;;;;5093784;28;20123;-84
2023/03/25 12:30:04;;;;;;;9.48;2.53;;;16.80;55.60;;;;;;5088759;28;20067;-84
2023/03/25 12:32:54;;;;;;;11.82;2.92;;;16.80;55.60;;;;;;5093361;28;20074;-73
2023/03/25 12:35:32;;;;;;;11.73;2.72;;;16.80;55.60;;;;;;5093088;28;20051;-72
2023/03/25 12:38:17;;;;;;;8.35;2.45;;;16.80;55.50;;;;;;5093334;28;20057;-73
2023/03/25 12:41:05;;;;;;;9.77;2.78;;;16.80;55.40;;;;;;5093318;28;20169;-73
2023/03/25 12:43:58;;;;;;;7.85;2.90;;;16.90;55.30;;;;;;5093273;28;20032;-73
2023/03/25 12:46:42;;;;;;;10.27;2.60;;;17.00;55.00;;;;;;5092914;28;20020;-73
2023/03/25 12:49:29;;;;;;;10.40;2.75;;;17.10;54.80;;;;;;5092886;28;20055;-73
2023/03/25 12:52:23;;;;;;;7.97;2.88;;;17.20;54.60;;;;;;5093162;28;20039;-80
2023/03/25 12:55:01;;;;;;;8.25;2.28;;;17.30;55.20;;;;;;5092758;28;20085;-80
2023/03/25 12:57:39;;;;;;;12.43;2.78;;;17.20;54.40;;;;;;5092773;28;20085;-80
2023/03/25 13:00:17;;;;;;;11.75;3.00;;;17.30;54.50;;;;;;5092777;28;20051;-80
2023/03/25 13:02:59;;;;;;;9.90;2.70;;;17.30;54.40;;;;;;5092648;28;20462;-80
2023/03/25 13:05:39;;;;;;;11.13;3.05;;;17.40;54.20;;;;;;5092678;28;20498;-80
2023/03/25 13:08:23;;;;;;;10.75;2.58;;;17.50;54.10;;;;;;5092662;28;20024;-84